Terminal Aerodrome Forecast
Issued by NWS

Home | Current Version | Previous Version | Graphics & Text | Print | Product List | Glossary On
Versions: 1 2 3 4 5 6 7 8 9 10 11 12 13 14 15 16 17 18 19 20 21 22 23 24 25 26
582
FTUS43 KLOT 280303 AAB
TAFORD
TAF AMD
KORD 280303Z 2803/2906 05004KT P6SM VCSH SCT050 BKN250
     FM280400 VRB03KT P6SM SCT250
     FM280900 VRB03KT 4SM BR FEW060
     FM281100 06004KT P6SM SCT060
     FM281700 06007KT P6SM VCSH SCT030 BKN080 PROB30 2818/2822 4SM
      -TSRA BKN040CB
     FM282300 03007KT P6SM SCT030 BKN080=

USA.gov is the U.S. government's official web portal to all federal, state and local government web resources and services.